GBYD/BJL METAR and TAF weather

Enter ICAO airport designator
Station Type Date Time Source
GBYD METAR 2018/04/23 11:00 UTC NOAA

GBYD 231100Z 28006KT CAVOK 26/14 Q1013


Station Type Date Time Source
GBYD Decoded METAR 2018/04/23 11:00 UTC NOAA

Banjul / Yundum, Gambia, The (GBYD) 13-21N 016-48W 36M
Apr 23, 2018 - 07:00 AM EDT / 2018.04.23 1100 UTC
Wind: from the W (280 degrees) at 7 MPH (6 KT):0
Visibility: greater than 7 mile(s):0
Temperature: 78 F (26 C)
Dew Point: 57 F (14 C)
Relative Humidity: 47%
Pressure (altimeter): 29.91 in. Hg (1013 hPa)
ob: GBYD 231100Z 28006KT CAVOK 26/14 Q1013
cycle: 11

Station Type Date Time Source
GBYD TAF 2018/04/23 12:24 UTC NOAA

TAF TAF GBYD 231130Z 2312/2418 34010KT CAVOK


Example: see airport list